createdAt,value
2022-09-02T00:01:06.815Z,2.9
2022-09-02T00:02:15.231Z,2.9
2022-09-02T00:03:23.814Z,2.9
2022-09-02T00:04:32.031Z,2.7
2022-09-02T00:05:40.352Z,2.7
2022-09-02T00:06:48.687Z,2.7
2022-09-02T00:07:57.225Z,2.6
2022-09-02T00:09:05.543Z,2.6
2022-09-02T00:10:13.893Z,2.6
2022-09-02T00:11:22.448Z,3
2022-09-02T00:12:30.770Z,3
2022-09-02T00:13:39.115Z,3
2022-09-02T00:14:47.649Z,2.8
2022-09-02T00:15:55.999Z,2.8
2022-09-02T00:17:04.309Z,2.8
2022-09-02T00:18:14.171Z,2.8
2022-09-02T00:19:21.185Z,2.8
2022-09-02T00:20:29.543Z,2.8
2022-09-02T00:21:38.065Z,2.9
2022-09-02T00:22:46.401Z,2.9
2022-09-02T00:23:54.769Z,2.9
2022-09-02T00:25:03.298Z,3
2022-09-02T00:26:11.629Z,3
2022-09-02T00:27:19.934Z,3
2022-09-02T00:28:28.492Z,3
2022-09-02T00:29:36.817Z,3
2022-09-02T00:30:45.158Z,3
2022-09-02T00:31:53.755Z,3
2022-09-02T00:33:02.011Z,3
2022-09-02T00:34:10.351Z,3
2022-09-02T00:35:18.883Z,3.1
2022-09-02T00:36:27.214Z,3.1
2022-09-02T00:37:35.549Z,3.1
2022-09-02T00:38:44.116Z,3.6
2022-09-02T00:39:52.459Z,3.6
2022-09-02T00:41:00.790Z,3.6
2022-09-02T00:42:09.311Z,3.2
2022-09-02T00:43:17.685Z,3.2
2022-09-02T00:44:25.985Z,3.2
2022-09-02T00:45:34.557Z,3
2022-09-02T00:46:42.823Z,3
2022-09-02T00:47:51.178Z,3
2022-09-02T00:48:59.709Z,3.4
2022-09-02T00:50:08.029Z,3.4
2022-09-02T00:51:16.372Z,3.4
2022-09-02T00:52:24.924Z,4.1
2022-09-02T00:53:33.271Z,4.1
2022-09-02T00:54:41.600Z,4.1
2022-09-02T00:55:50.139Z,3.8
2022-09-02T00:56:58.465Z,3.8
2022-09-02T00:58:09.372Z,3.8
2022-09-02T00:59:15.338Z,3.8
2022-09-02T01:00:23.676Z,3.8
2022-09-02T01:01:32.123Z,3.8
2022-09-02T01:02:40.568Z,3.9
2022-09-02T01:03:48.899Z,3.9
2022-09-02T01:04:57.238Z,3.9
2022-09-02T01:06:05.741Z,4.2
2022-09-02T01:07:14.081Z,4.2
2022-09-02T01:08:22.399Z,4.2
2022-09-02T01:09:30.923Z,4.1
2022-09-02T01:10:39.253Z,4.1
2022-09-02T01:11:47.647Z,4.1
2022-09-02T01:12:56.170Z,4
2022-09-02T01:14:04.510Z,4
2022-09-02T01:15:12.851Z,4
2022-09-02T01:16:21.432Z,3.9
2022-09-02T01:17:29.730Z,3.9
2022-09-02T01:18:38.045Z,3.9
2022-09-02T01:19:46.617Z,3.6
2022-09-02T01:20:54.929Z,3.6
2022-09-02T01:22:03.255Z,3.6
2022-09-02T01:23:11.783Z,3.6
2022-09-02T01:24:20.092Z,3.6
2022-09-02T01:25:28.410Z,3.6
2022-09-02T01:26:36.955Z,3.6
2022-09-02T01:27:45.285Z,3.6
2022-09-02T01:28:53.587Z,3.6
2022-09-02T01:30:02.124Z,3.5
2022-09-02T01:31:10.479Z,3.5
2022-09-02T01:32:18.789Z,3.5
2022-09-02T01:33:27.331Z,3.6
2022-09-02T01:34:35.664Z,3.6
2022-09-02T01:35:44.008Z,3.6
2022-09-02T01:36:52.537Z,3.2
2022-09-02T01:38:00.865Z,3.2
2022-09-02T01:39:09.189Z,3.2
2022-09-02T01:40:17.770Z,3.3
2022-09-02T01:41:26.060Z,3.3
2022-09-02T01:42:34.405Z,3.3
2022-09-02T01:43:42.920Z,3.4
2022-09-02T01:44:51.231Z,3.4
2022-09-02T01:45:59.585Z,3.4
2022-09-02T01:47:08.128Z,2.9
2022-09-02T01:48:21.341Z,2.9
2022-09-02T01:49:24.805Z,2.9
2022-09-02T01:50:33.340Z,3.4
2022-09-02T01:51:41.659Z,3.4
2022-09-02T01:52:49.995Z,3.4
2022-09-02T01:53:58.548Z,3.3
2022-09-02T01:55:06.884Z,3.3
2022-09-02T01:56:15.253Z,3.3
2022-09-02T01:57:23.775Z,3.2
2022-09-02T01:58:32.095Z,3.2
2022-09-02T01:59:40.460Z,3.2
2022-09-02T02:00:49.058Z,3
2022-09-02T02:01:57.341Z,3
2022-09-02T02:03:05.652Z,3
2022-09-02T02:04:14.187Z,3.4
2022-09-02T02:05:22.549Z,3.4
2022-09-02T02:06:30.868Z,3.4
2022-09-02T02:07:39.397Z,3.4
2022-09-02T02:08:47.720Z,3.4
2022-09-02T02:09:56.071Z,3.4
2022-09-02T02:11:04.625Z,3.1
2022-09-02T02:12:12.957Z,3.1
2022-09-02T02:13:21.350Z,3.1
2022-09-02T02:14:29.824Z,3.7
2022-09-02T02:15:38.160Z,3.7
2022-09-02T02:16:46.490Z,3.7
2022-09-02T02:17:55.012Z,3.7
2022-09-02T02:19:03.349Z,3.7
2022-09-02T02:20:11.680Z,3.7
2022-09-02T02:21:20.207Z,3.6
2022-09-02T02:22:28.536Z,3.6
2022-09-02T02:23:36.848Z,3.6
2022-09-02T02:24:45.383Z,3.4
2022-09-02T02:25:53.734Z,3.4
2022-09-02T02:27:02.051Z,3.4
2022-09-02T02:28:10.630Z,3.5
2022-09-02T02:29:18.920Z,3.5
2022-09-02T02:30:27.262Z,3.5
2022-09-02T02:31:35.835Z,3.8
2022-09-02T02:32:44.139Z,3.8
2022-09-02T02:33:52.455Z,3.8
2022-09-02T02:35:00.995Z,4
2022-09-02T02:36:09.318Z,4
2022-09-02T02:37:19.409Z,4
2022-09-02T02:38:26.198Z,4
2022-09-02T02:39:34.562Z,4
2022-09-02T02:40:42.925Z,4
2022-09-02T02:41:51.409Z,3.3
2022-09-02T02:42:59.735Z,3.3
2022-09-02T02:44:08.052Z,3.3
2022-09-02T02:45:16.634Z,3
2022-09-02T02:46:25.124Z,3
2022-09-02T02:47:33.270Z,3
2022-09-02T02:48:41.811Z,3.3
2022-09-02T02:49:50.134Z,3.3
2022-09-02T02:50:58.492Z,3.3
2022-09-02T02:52:06.995Z,3.3
2022-09-02T02:53:15.353Z,3.3
2022-09-02T02:54:23.644Z,3.3
2022-09-02T02:55:32.183Z,3
2022-09-02T02:56:40.547Z,3
2022-09-02T02:57:48.867Z,3
2022-09-02T02:58:57.410Z,3.2
2022-09-02T03:00:05.775Z,3.2
2022-09-02T03:01:14.104Z,3.2
2022-09-02T03:02:22.824Z,3.1
2022-09-02T03:03:31.001Z,3.1
2022-09-02T03:04:39.353Z,3.1
2022-09-02T03:05:47.901Z,3.6
2022-09-02T03:06:56.214Z,3.6
2022-09-02T03:08:04.546Z,3.6
2022-09-02T03:09:13.081Z,3.2
2022-09-02T03:10:21.457Z,3.2
2022-09-02T03:11:29.789Z,3.2
2022-09-02T03:12:38.328Z,3.1
2022-09-02T03:13:46.676Z,3.1
2022-09-02T03:14:54.995Z,3.1
2022-09-02T03:16:03.625Z,3.7
2022-09-02T03:17:11.873Z,3.7
2022-09-02T03:18:20.214Z,3.7
2022-09-02T03:19:28.749Z,3.3
2022-09-02T03:20:37.086Z,3.3
2022-09-02T03:21:45.402Z,3.3
2022-09-02T03:22:53.929Z,3.4
2022-09-02T03:24:02.259Z,3.4
2022-09-02T03:25:10.627Z,3.4
2022-09-02T03:26:19.153Z,3.1
2022-09-02T03:27:27.495Z,3.1
2022-09-02T03:28:35.808Z,3.1
2022-09-02T03:29:44.357Z,3.6
2022-09-02T03:30:52.747Z,3.6
2022-09-02T03:32:01.016Z,3.6
2022-09-02T03:33:09.631Z,4
2022-09-02T03:34:17.877Z,4
2022-09-02T03:35:26.197Z,4
2022-09-02T03:36:34.743Z,4.1
2022-09-02T03:37:43.067Z,4.1
2022-09-02T03:38:51.399Z,4.1
2022-09-02T03:39:59.942Z,3.8
2022-09-02T03:41:08.276Z,3.8
2022-09-02T03:42:19.500Z,3.8
2022-09-02T03:43:25.129Z,3.7
2022-09-02T03:44:33.483Z,3.7
2022-09-02T03:45:42.126Z,3.7
2022-09-02T03:46:50.358Z,4.2
2022-09-02T03:47:58.673Z,4.2
2022-09-02T03:49:07.009Z,4.2
2022-09-02T03:50:15.545Z,3.8
2022-09-02T03:51:23.872Z,3.8
2022-09-02T03:52:32.209Z,3.8
2022-09-02T03:53:40.733Z,3.3
2022-09-02T03:54:49.090Z,3.3
2022-09-02T03:55:57.406Z,3.3
2022-09-02T03:57:05.979Z,3.2
2022-09-02T03:58:14.287Z,3.2
2022-09-02T03:59:22.613Z,3.2
2022-09-02T04:00:31.145Z,3.1
2022-09-02T04:01:39.510Z,3.1
2022-09-02T04:02:50.048Z,3.1
2022-09-02T04:03:56.368Z,3.4
2022-09-02T04:05:04.702Z,3.4
2022-09-02T04:06:13.052Z,3.4
2022-09-02T04:07:21.577Z,3.5
2022-09-02T04:08:29.906Z,3.5
2022-09-02T04:09:38.240Z,3.5
2022-09-02T04:10:46.773Z,3.6
2022-09-02T04:11:55.109Z,3.6
2022-09-02T04:13:03.420Z,3.6
2022-09-02T04:14:12.028Z,3.4
2022-09-02T04:15:20.348Z,3.4
2022-09-02T04:16:29.097Z,3.4
2022-09-02T04:17:37.219Z,3.9
2022-09-02T04:18:45.568Z,3.9
2022-09-02T04:19:53.925Z,3.9
2022-09-02T04:21:02.431Z,4
2022-09-02T04:22:10.787Z,4
2022-09-02T04:23:19.081Z,4
2022-09-02T04:24:27.635Z,4.3
2022-09-02T04:25:35.943Z,4.3
2022-09-02T04:26:44.796Z,4.3
2022-09-02T04:27:52.810Z,4
2022-09-02T04:29:01.150Z,4
2022-09-02T04:30:09.500Z,4
2022-09-02T04:31:18.050Z,4
2022-09-02T04:32:26.347Z,4
2022-09-02T04:33:34.660Z,4
2022-09-02T04:34:43.197Z,3.6
2022-09-02T04:35:51.521Z,3.6
2022-09-02T04:36:59.857Z,3.6
2022-09-02T04:38:08.422Z,3.4
2022-09-02T04:39:16.731Z,3.4
2022-09-02T04:40:25.117Z,3.4
2022-09-02T04:41:33.601Z,3.7
2022-09-02T04:42:41.939Z,3.7
2022-09-02T04:43:50.261Z,3.7
2022-09-02T04:44:58.797Z,3.2
2022-09-02T04:46:07.158Z,3.2
2022-09-02T04:47:15.455Z,3.2
2022-09-02T04:48:24.048Z,3.4
2022-09-02T04:49:32.372Z,3.4
2022-09-02T04:50:40.696Z,3.4
2022-09-02T04:51:49.235Z,3.2
2022-09-02T04:52:57.532Z,3.2
2022-09-02T04:54:05.874Z,3.2
2022-09-02T04:55:14.386Z,3.1
2022-09-02T04:56:22.720Z,3.1
2022-09-02T04:57:31.031Z,3.1
2022-09-02T04:58:39.570Z,3.2
2022-09-02T04:59:47.903Z,3.2
2022-09-02T05:00:56.215Z,3.2
2022-09-02T05:02:04.941Z,3.1
2022-09-02T05:03:13.235Z,3.1
2022-09-02T05:04:21.424Z,3.1
2022-09-02T05:05:30.009Z,3.2
2022-09-02T05:06:41.979Z,3.2
2022-09-02T05:07:46.672Z,3.2
2022-09-02T05:08:55.202Z,3
2022-09-02T05:10:03.524Z,3
2022-09-02T05:11:11.845Z,3
2022-09-02T05:12:20.375Z,3
2022-09-02T05:13:28.691Z,3
2022-09-02T05:14:37.041Z,3
2022-09-02T05:15:45.665Z,3.5
2022-09-02T05:16:53.930Z,3.5
2022-09-02T05:18:02.239Z,3.5
2022-09-02T05:19:10.766Z,3.3
2022-09-02T05:20:19.093Z,3.3
2022-09-02T05:21:27.414Z,3.3
2022-09-02T05:22:35.949Z,2.9
2022-09-02T05:23:44.281Z,2.9
2022-09-02T05:24:52.601Z,2.9
2022-09-02T05:26:01.197Z,3.9
2022-09-02T05:27:09.531Z,3.9
2022-09-02T05:28:17.913Z,3.9
2022-09-02T05:29:26.441Z,7.4
2022-09-02T05:30:34.774Z,7.4
2022-09-02T05:31:43.112Z,7.4
2022-09-02T05:32:51.683Z,3.8
2022-09-02T05:34:00.016Z,3.8
2022-09-02T05:35:08.339Z,3.8
2022-09-02T05:36:16.891Z,3.7
2022-09-02T05:37:25.222Z,3.7
2022-09-02T05:38:33.537Z,3.7
2022-09-02T05:39:42.107Z,3.4
2022-09-02T05:40:50.532Z,3.4
2022-09-02T05:41:58.770Z,3.4
2022-09-02T05:43:07.357Z,3.4
2022-09-02T05:44:15.650Z,3.4
2022-09-02T05:45:23.999Z,3.4
2022-09-02T05:46:32.555Z,3.7
2022-09-02T05:47:40.860Z,3.7
2022-09-02T05:48:49.194Z,3.7
2022-09-02T05:49:57.721Z,3.7
2022-09-02T05:51:06.050Z,3.7
2022-09-02T05:52:14.404Z,3.7
2022-09-02T05:53:22.953Z,3.9
2022-09-02T05:54:31.262Z,3.9
2022-09-02T05:55:39.585Z,3.9
2022-09-02T05:56:48.153Z,3.3
2022-09-02T05:57:56.504Z,3.3
2022-09-02T05:59:04.827Z,3.3
2022-09-02T06:00:17.825Z,3.3
2022-09-02T06:01:21.735Z,3.3
2022-09-02T06:02:30.093Z,3.3
2022-09-02T06:03:38.585Z,4.1
2022-09-02T06:04:46.948Z,4.1
2022-09-02T06:05:55.259Z,4.1
2022-09-02T06:07:03.818Z,3.6
2022-09-02T06:08:12.155Z,3.6
2022-09-02T06:09:20.498Z,3.6
2022-09-02T06:10:29.036Z,3.4
2022-09-02T06:11:37.398Z,3.4
2022-09-02T06:12:45.718Z,3.4
2022-09-02T06:13:54.242Z,3.1
2022-09-02T06:15:02.580Z,3.1
2022-09-02T06:16:10.989Z,3.1
2022-09-02T06:17:19.493Z,2.9
2022-09-02T06:18:27.808Z,2.9
2022-09-02T06:19:36.136Z,2.9
2022-09-02T06:20:44.681Z,3.5
2022-09-02T06:21:53.003Z,3.5
2022-09-02T06:23:01.347Z,3.5
2022-09-02T06:24:09.887Z,3.3
2022-09-02T06:25:18.218Z,3.3
2022-09-02T06:26:26.554Z,3.3
2022-09-02T06:27:35.090Z,2.8
2022-09-02T06:28:43.423Z,2.8
2022-09-02T06:29:51.768Z,2.8
2022-09-02T06:31:00.388Z,2.9
2022-09-02T06:32:08.657Z,2.9
2022-09-02T06:33:17.050Z,2.9
2022-09-02T06:34:25.516Z,2.9
2022-09-02T06:35:33.844Z,2.9
2022-09-02T06:36:42.192Z,2.9
2022-09-02T06:37:50.723Z,3.3
2022-09-02T06:38:59.037Z,3.3
2022-09-02T06:40:07.452Z,3.3
2022-09-02T06:41:15.928Z,3.2
2022-09-02T06:42:24.264Z,3.2
2022-09-02T06:43:37.653Z,3.2
2022-09-02T06:44:41.110Z,3.4
2022-09-02T06:45:49.498Z,3.4
2022-09-02T06:46:57.751Z,3.4
2022-09-02T06:48:07.657Z,3.2
2022-09-02T06:49:14.621Z,3.2
2022-09-02T06:50:22.945Z,3.2
2022-09-02T06:51:31.495Z,3.2
2022-09-02T06:52:39.855Z,3.2
2022-09-02T06:53:48.173Z,3.2
2022-09-02T06:54:56.703Z,3.2
2022-09-02T06:56:05.034Z,3.2
2022-09-02T06:57:13.367Z,3.2
2022-09-02T06:58:21.906Z,2.8
2022-09-02T06:59:30.230Z,2.8
2022-09-02T07:00:38.568Z,2.8
2022-09-02T07:01:47.251Z,4.8
2022-09-02T07:02:55.418Z,4.8
2022-09-02T07:04:03.731Z,4.8
2022-09-02T07:05:12.268Z,3.4
2022-09-02T07:06:20.603Z,3.4
2022-09-02T07:07:28.920Z,3.4
2022-09-02T07:08:37.451Z,2.8
2022-09-02T07:09:45.769Z,2.8
2022-09-02T07:10:54.094Z,2.8
2022-09-02T07:12:04.898Z,2.8
2022-09-02T07:13:10.942Z,2.8
2022-09-02T07:14:19.263Z,2.8
2022-09-02T07:15:27.793Z,2.4
2022-09-02T07:16:36.158Z,2.4
2022-09-02T07:17:44.446Z,2.4
2022-09-02T07:18:52.983Z,3.1
2022-09-02T07:20:01.309Z,3.1
2022-09-02T07:21:09.619Z,3.1
2022-09-02T07:22:18.796Z,2.7
2022-09-02T07:23:26.474Z,2.7
2022-09-02T07:24:34.797Z,2.7
2022-09-02T07:25:43.330Z,2.9
2022-09-02T07:26:55.515Z,2.9
2022-09-02T07:27:59.976Z,2.9
2022-09-02T07:29:08.510Z,2.9
2022-09-02T07:30:16.838Z,2.9
2022-09-02T07:31:25.165Z,2.9
2022-09-02T07:32:33.695Z,2.6
2022-09-02T07:33:42.003Z,2.6
2022-09-02T07:34:50.408Z,2.6
2022-09-02T07:35:58.863Z,3
2022-09-02T07:37:10.576Z,3
2022-09-02T07:38:15.503Z,3
2022-09-02T07:39:24.041Z,2.8
2022-09-02T07:40:32.410Z,2.8
2022-09-02T07:41:40.717Z,2.8
2022-09-02T07:42:49.266Z,2.6
2022-09-02T07:43:59.638Z,2.6
2022-09-02T07:45:05.874Z,2.6
2022-09-02T07:46:14.422Z,2.6
2022-09-02T07:47:22.733Z,2.6
2022-09-02T07:48:31.056Z,2.6
2022-09-02T07:50:47.912Z,2.5
2022-09-02T07:51:56.233Z,2.5
2022-09-02T07:53:04.763Z,2.5
2022-09-02T07:54:13.075Z,2.5
2022-09-02T07:55:21.409Z,2.5
2022-09-02T07:56:29.945Z,2.6
2022-09-02T07:57:38.267Z,2.6
2022-09-02T07:58:46.581Z,2.6
2022-09-02T07:59:55.126Z,2.3
2022-09-02T08:01:03.516Z,2.3
2022-09-02T08:02:11.813Z,2.3
2022-09-02T08:03:20.352Z,2.5
2022-09-02T08:04:28.634Z,2.5
2022-09-02T08:05:36.970Z,2.5
2022-09-02T08:06:45.508Z,2.7
2022-09-02T08:07:53.836Z,2.7
2022-09-02T08:09:02.151Z,2.7
2022-09-02T08:10:10.684Z,2.4
2022-09-02T08:11:19.052Z,2.4
2022-09-02T08:12:27.382Z,2.4
2022-09-02T08:13:35.909Z,2.6
2022-09-02T08:14:44.229Z,2.6
2022-09-02T08:15:52.570Z,2.6
2022-09-02T08:17:01.144Z,2.3
2022-09-02T08:18:12.370Z,2.3
2022-09-02T08:19:17.745Z,2.3
2022-09-02T08:20:26.291Z,2
2022-09-02T08:21:34.626Z,2
2022-09-02T08:22:43.065Z,2
2022-09-02T08:23:51.481Z,1.9
2022-09-02T08:24:59.789Z,1.9
2022-09-02T08:26:08.148Z,1.9
2022-09-02T08:27:16.666Z,2.1
2022-09-02T08:28:24.996Z,2.1
2022-09-02T08:29:33.304Z,2.1
2022-09-02T08:30:41.838Z,1.7
2022-09-02T08:31:52.098Z,1.7
2022-09-02T08:32:58.477Z,1.7
2022-09-02T08:34:07.017Z,1.9
2022-09-02T08:35:15.338Z,1.9
2022-09-02T08:36:23.655Z,1.9
2022-09-02T08:37:32.197Z,1.9
2022-09-02T08:38:40.528Z,1.9
2022-09-02T08:39:48.843Z,1.9
2022-09-02T08:40:57.439Z,2.1
2022-09-02T08:42:05.708Z,2.1
2022-09-02T08:43:14.066Z,2.1
2022-09-02T08:44:22.557Z,1.9
2022-09-02T08:45:30.952Z,1.9
2022-09-02T08:46:39.233Z,1.9
2022-09-02T08:47:47.777Z,1.5
2022-09-02T08:48:56.103Z,1.5
2022-09-02T08:50:04.436Z,1.5
2022-09-02T08:51:12.974Z,1.8
2022-09-02T08:52:21.296Z,1.8
2022-09-02T08:53:29.606Z,1.8
2022-09-02T08:54:38.131Z,1.9
2022-09-02T08:55:46.465Z,1.9
2022-09-02T08:56:54.917Z,1.9
2022-09-02T08:58:03.483Z,2
2022-09-02T08:59:11.755Z,2
2022-09-02T09:00:20.090Z,2
2022-09-02T09:01:28.678Z,2.1
2022-09-02T09:02:37.011Z,2.1
2022-09-02T09:03:45.281Z,2.1
2022-09-02T09:04:53.825Z,1.6
2022-09-02T09:06:02.145Z,1.6
2022-09-02T09:07:10.471Z,1.6
2022-09-02T09:08:21.488Z,2.2
2022-09-02T09:09:27.317Z,2.2
2022-09-02T09:10:35.641Z,2.2
2022-09-02T09:11:44.170Z,2.5
2022-09-02T09:12:52.502Z,2.5
2022-09-02T09:14:00.829Z,2.5
2022-09-02T09:15:09.360Z,1.7
2022-09-02T09:16:17.735Z,1.7
2022-09-02T09:17:25.998Z,1.7
2022-09-02T09:18:34.540Z,1.8
2022-09-02T09:19:42.871Z,1.8
2022-09-02T09:20:51.206Z,1.8
2022-09-02T09:21:59.730Z,1.3
2022-09-02T09:23:08.051Z,1.3
2022-09-02T09:24:16.376Z,1.3
2022-09-02T09:25:24.931Z,1.6
2022-09-02T09:26:33.240Z,1.6
2022-09-02T09:27:41.570Z,1.6
2022-09-02T09:28:50.098Z,1.6
2022-09-02T09:29:58.441Z,1.6
2022-09-02T09:31:06.789Z,1.6
2022-09-02T09:32:15.344Z,1.5
2022-09-02T09:33:23.783Z,1.5
2022-09-02T09:34:32.011Z,1.5
2022-09-02T09:35:40.552Z,1.7
2022-09-02T09:36:48.863Z,1.7
2022-09-02T09:37:57.194Z,1.7
2022-09-02T09:39:05.719Z,1.7
2022-09-02T09:40:14.105Z,1.7
2022-09-02T09:41:22.393Z,1.7
2022-09-02T09:42:30.933Z,1.4
2022-09-02T09:43:39.280Z,1.4
2022-09-02T09:44:47.602Z,1.4
2022-09-02T09:45:56.177Z,1.4
2022-09-02T09:47:04.466Z,1.4
2022-09-02T09:48:12.796Z,1.4
2022-09-02T09:49:21.341Z,1.3
2022-09-02T09:50:29.687Z,1.3
2022-09-02T09:51:49.631Z,1.3
2022-09-02T09:52:46.537Z,1.7
2022-09-02T09:53:54.850Z,1.7
2022-09-02T09:55:03.187Z,1.7
2022-09-02T09:56:11.719Z,1.3
2022-09-02T09:57:21.397Z,1.3
2022-09-02T09:58:28.368Z,1.3
2022-09-02T09:59:36.906Z,1.4
2022-09-02T10:00:45.267Z,1.4
2022-09-02T10:01:53.657Z,1.4
2022-09-02T10:03:02.094Z,1.3
2022-09-02T10:04:39.728Z,1.3
2022-09-02T10:05:18.814Z,1.3
2022-09-02T10:06:27.366Z,1.5
2022-09-02T10:07:35.707Z,1.5
2022-09-02T10:08:44.030Z,1.5
2022-09-02T10:09:52.569Z,1.5
2022-09-02T10:11:00.892Z,1.5
2022-09-02T10:12:09.199Z,1.5
2022-09-02T10:14:26.589Z,1.3
2022-09-02T10:15:34.383Z,1.3
2022-09-02T10:16:43.028Z,1.3
2022-09-02T10:17:51.231Z,1.3
2022-09-02T10:18:59.549Z,1.3
2022-09-02T10:20:08.092Z,1.4
2022-09-02T10:21:16.533Z,1.4
2022-09-02T10:22:37.776Z,1.4
2022-09-02T10:23:33.251Z,1.5
2022-09-02T10:24:41.580Z,1.5
2022-09-02T10:25:49.910Z,1.5
2022-09-02T10:26:58.421Z,1.5
2022-09-02T10:28:06.734Z,1.5
2022-09-02T10:29:15.070Z,1.5
2022-09-02T10:30:23.603Z,1.1
2022-09-02T10:31:31.971Z,1.1
2022-09-02T10:32:40.277Z,1.1
2022-09-02T10:33:48.815Z,1.9
2022-09-02T10:34:57.152Z,1.9
2022-09-02T10:36:05.490Z,1.9
2022-09-02T10:37:14.029Z,1.3
2022-09-02T10:38:22.433Z,1.3
2022-09-02T10:39:30.700Z,1.3
2022-09-02T10:40:39.280Z,1.6
2022-09-02T10:41:47.677Z,1.6
2022-09-02T10:42:55.880Z,1.6
2022-09-02T10:44:04.419Z,2.6
2022-09-02T10:45:12.744Z,2.6
2022-09-02T10:46:21.100Z,2.6
2022-09-02T10:47:29.592Z,1.6
2022-09-02T10:48:37.932Z,1.6
2022-09-02T10:49:46.247Z,1.6
2022-09-02T10:50:54.771Z,1.3
2022-09-02T10:52:03.091Z,1.3
2022-09-02T10:53:11.419Z,1.3
2022-09-02T10:54:19.960Z,1.2
2022-09-02T10:55:28.287Z,1.2
2022-09-02T10:56:36.607Z,1.2
2022-09-02T10:57:45.148Z,1.3
2022-09-02T10:58:53.492Z,1.3
2022-09-02T11:00:01.811Z,1.3
2022-09-02T11:01:10.384Z,1.4
2022-09-02T11:02:18.686Z,1.4
2022-09-02T11:03:27.085Z,1.4
2022-09-02T11:04:35.578Z,6
2022-09-02T11:05:43.907Z,6
2022-09-02T11:07:02.292Z,6
2022-09-02T11:08:00.780Z,1.8
2022-09-02T11:09:09.120Z,1.8
2022-09-02T11:10:17.435Z,1.8
2022-09-02T11:11:25.967Z,1.2
2022-09-02T11:12:34.305Z,1.2
2022-09-02T11:13:42.648Z,1.2
2022-09-02T11:14:51.167Z,1.2
2022-09-02T11:15:59.574Z,1.2
2022-09-02T11:17:12.790Z,1.2
2022-09-02T11:18:16.399Z,1.2
2022-09-02T11:19:24.714Z,1.2
2022-09-02T11:20:33.029Z,1.2
2022-09-02T11:21:41.577Z,1.2
2022-09-02T11:22:49.917Z,1.2
2022-09-02T11:23:58.259Z,1.2
2022-09-02T11:25:06.788Z,1.2
2022-09-02T11:26:15.108Z,1.2
2022-09-02T11:27:41.434Z,1.2
2022-09-02T11:28:31.962Z,1.6
2022-09-02T11:29:40.281Z,1.6
2022-09-02T11:30:48.679Z,1.6
2022-09-02T11:31:57.143Z,1.1
2022-09-02T11:33:05.457Z,1.1
2022-09-02T11:34:13.798Z,1.1
2022-09-02T11:35:22.322Z,0.9
2022-09-02T11:36:32.314Z,0.9
2022-09-02T11:37:38.997Z,0.9
2022-09-02T11:38:47.530Z,1.5
2022-09-02T11:40:06.605Z,1.5
2022-09-02T11:42:12.747Z,1.2
2022-09-02T11:43:21.766Z,1.2
2022-09-02T11:44:30.849Z,1.2
2022-09-02T11:45:37.988Z,1.1
2022-09-02T11:46:46.263Z,1.1
2022-09-02T11:47:54.574Z,1.1
2022-09-02T11:49:03.109Z,1.2
2022-09-02T11:50:11.568Z,1.2
2022-09-02T11:52:28.295Z,1.1
2022-09-02T11:53:36.635Z,1.1
2022-09-02T11:54:44.953Z,1.1
2022-09-02T11:55:53.474Z,1.2
2022-09-02T11:57:01.828Z,1.2
2022-09-02T11:58:10.186Z,1.2
2022-09-02T11:59:18.707Z,1.2
2022-09-02T12:00:27.044Z,1.2
2022-09-02T12:01:35.359Z,1.2
2022-09-02T12:02:43.883Z,2
2022-09-02T12:04:27.446Z,2
2022-09-02T12:05:01.696Z,2
2022-09-02T12:06:09.280Z,1.4
2022-09-02T12:07:17.425Z,1.4
2022-09-02T12:08:25.752Z,1.4
2022-09-02T12:09:34.325Z,1.2
2022-09-02T12:10:42.603Z,1.2
2022-09-02T12:11:50.934Z,1.2
2022-09-02T12:12:59.477Z,1.1
2022-09-02T12:14:08.213Z,1.1
2022-09-02T12:15:16.128Z,1.1
2022-09-02T12:16:24.694Z,1.1
2022-09-02T12:17:32.994Z,1.1
2022-09-02T12:18:41.334Z,1.1
2022-09-02T12:19:49.874Z,1.4
2022-09-02T12:20:58.194Z,1.4
2022-09-02T12:22:06.515Z,1.4
2022-09-02T12:23:15.083Z,1.2
2022-09-02T12:24:23.438Z,1.2
2022-09-02T12:25:31.760Z,1.2
2022-09-02T12:26:40.314Z,4.6
2022-09-02T12:27:48.630Z,4.6
2022-09-02T12:28:56.959Z,4.6
2022-09-02T12:30:05.536Z,0.9
2022-09-02T12:31:13.927Z,0.9
2022-09-02T12:32:22.194Z,0.9
2022-09-02T12:33:30.728Z,1.4
2022-09-02T12:34:39.051Z,1.4
2022-09-02T12:35:47.357Z,1.4
2022-09-02T12:36:55.886Z,1
2022-09-02T12:38:04.219Z,1
2022-09-02T12:39:12.539Z,1
2022-09-02T12:40:21.147Z,0.9
2022-09-02T12:41:29.374Z,0.9
2022-09-02T12:42:37.734Z,0.9
2022-09-02T12:43:46.263Z,1.1
2022-09-02T12:44:54.571Z,1.1
2022-09-02T12:46:02.934Z,1.1
2022-09-02T12:47:11.407Z,1.4
2022-09-02T12:48:21.701Z,1.4
2022-09-02T12:49:28.077Z,1.4
2022-09-02T12:50:36.607Z,1
2022-09-02T12:51:45.001Z,1
2022-09-02T12:52:53.322Z,1
2022-09-02T12:54:01.866Z,1.4
2022-09-02T12:55:10.186Z,1.4
2022-09-02T12:56:18.504Z,1.4
2022-09-02T12:57:27.026Z,1.1
2022-09-02T12:58:37.430Z,1.1
2022-09-02T13:00:23.958Z,1.1
2022-09-02T13:01:36.437Z,1.4
2022-09-02T13:02:49.246Z,1.4
2022-09-02T13:04:01.556Z,1.4
2022-09-02T13:05:10.776Z,1.2
2022-09-02T13:06:19.097Z,1.2
2022-09-02T13:07:27.420Z,1.2
2022-09-02T13:08:35.970Z,1.1
2022-09-02T13:09:44.323Z,1.1
2022-09-02T13:10:52.665Z,1.1
2022-09-02T13:12:01.192Z,1.1
2022-09-02T13:13:09.515Z,1.1
2022-09-02T13:14:17.835Z,1.1
2022-09-02T13:15:26.373Z,1.1
2022-09-02T13:16:34.714Z,1.1
2022-09-02T13:17:43.038Z,1.1
2022-09-02T13:18:51.639Z,1.3
2022-09-02T13:19:59.964Z,1.3
2022-09-02T13:21:08.321Z,1.3
2022-09-02T13:22:16.833Z,1.1
2022-09-02T13:23:31.294Z,1.1
2022-09-02T13:24:33.518Z,1.1
2022-09-02T13:25:42.046Z,1.2
2022-09-02T13:26:50.579Z,1.2
2022-09-02T13:27:58.718Z,1.2
2022-09-02T13:29:07.247Z,0.9
2022-09-02T13:30:15.595Z,0.9
2022-09-02T13:31:23.985Z,0.9
2022-09-02T13:32:32.460Z,1.1
2022-09-02T13:33:42.632Z,1.1
2022-09-02T13:34:49.105Z,1.1
2022-09-02T13:35:57.650Z,1.4
2022-09-02T13:37:05.977Z,1.4
2022-09-02T13:38:15.578Z,1.4
2022-09-02T13:39:22.855Z,1.1
2022-09-02T13:40:31.169Z,1.1
2022-09-02T13:41:39.490Z,1.1
2022-09-02T13:42:48.040Z,1.1
2022-09-02T13:43:56.367Z,1.1
2022-09-02T13:45:04.700Z,1.1
2022-09-02T13:46:13.235Z,0.8
2022-09-02T13:47:21.550Z,0.8
2022-09-02T13:48:29.894Z,0.8
2022-09-02T13:49:38.427Z,1
2022-09-02T13:50:46.765Z,1
2022-09-02T13:51:55.088Z,1
2022-09-02T13:54:22.914Z,1.1
2022-09-02T13:55:20.377Z,1.1
2022-09-02T13:56:28.927Z,1
2022-09-02T13:57:37.244Z,1
2022-09-02T13:58:45.577Z,1
2022-09-02T13:59:54.119Z,0.9
2022-09-02T14:01:02.719Z,0.9
2022-09-02T14:02:10.936Z,0.9
2022-09-02T14:03:19.458Z,1.1
2022-09-02T14:04:27.626Z,1.1
2022-09-02T14:05:35.933Z,1.1
2022-09-02T14:06:44.462Z,1
2022-09-02T14:07:52.782Z,1
2022-09-02T14:09:01.114Z,1
2022-09-02T14:10:09.645Z,1.1
2022-09-02T14:11:17.976Z,1.1
2022-09-02T14:12:26.295Z,1.1
2022-09-02T14:13:34.845Z,1
2022-09-02T14:14:43.263Z,1
2022-09-02T14:15:51.668Z,1
2022-09-02T14:17:00.147Z,1
2022-09-02T14:18:08.505Z,1
2022-09-02T14:19:16.822Z,1
2022-09-02T14:20:25.369Z,1
2022-09-02T14:21:33.678Z,1
2022-09-02T14:22:42.001Z,1
2022-09-02T14:23:50.561Z,0.9
2022-09-02T14:24:58.908Z,0.9
2022-09-02T14:26:07.247Z,0.9
2022-09-02T14:27:15.777Z,1.1
2022-09-02T14:28:24.253Z,1.1
2022-09-02T14:29:32.452Z,1.1
2022-09-02T15:03:21.151Z,0
2022-09-02T15:04:29.475Z,0
2022-09-02T15:05:37.804Z,0
2022-09-02T15:06:46.351Z,1.2
2022-09-02T15:07:54.691Z,1.2
2022-09-02T15:09:04.264Z,1.2
2022-09-02T15:10:11.565Z,0.9
2022-09-02T15:11:19.891Z,0.9
2022-09-02T15:12:28.241Z,0.9
2022-09-02T15:13:36.774Z,8.3
2022-09-02T15:14:45.090Z,8.3
2022-09-02T15:15:53.437Z,8.3
2022-09-02T15:17:01.959Z,0.7
2022-09-02T15:18:10.280Z,0.7
2022-09-02T15:19:18.628Z,0.7
2022-09-02T15:20:28.984Z,0.7
2022-09-02T15:21:35.486Z,0.7
2022-09-02T15:22:43.832Z,0.7
2022-09-02T15:23:52.369Z,0.7
2022-09-02T15:25:00.718Z,0.7
2022-09-02T15:26:09.052Z,0.7
2022-09-02T15:27:18.969Z,0.8
2022-09-02T15:28:25.933Z,0.8
2022-09-02T15:29:34.269Z,0.8
2022-09-02T15:30:42.825Z,1
2022-09-02T15:31:51.149Z,1
2022-09-02T15:32:59.470Z,1
2022-09-02T15:34:08.032Z,6.6
2022-09-02T15:35:16.351Z,6.6
2022-09-02T15:36:24.703Z,6.6
2022-09-02T15:37:33.268Z,1.3
2022-09-02T15:38:41.614Z,1.3
2022-09-02T15:39:50.049Z,1.3
2022-09-02T15:40:58.469Z,1
2022-09-02T15:42:06.812Z,1
2022-09-02T15:43:15.211Z,1
2022-09-02T15:44:23.723Z,0.7
2022-09-02T15:45:32.070Z,0.7
2022-09-02T15:46:40.441Z,0.7
2022-09-02T15:47:48.938Z,0.9
2022-09-02T15:49:01.722Z,0.9
2022-09-02T15:50:05.627Z,0.9
2022-09-02T15:51:14.190Z,0.7
2022-09-02T15:52:22.539Z,0.7
2022-09-02T15:53:30.872Z,0.7
2022-09-02T15:54:39.408Z,1.1
2022-09-02T15:55:47.729Z,1.1
2022-09-02T15:56:56.077Z,1.1
2022-09-02T15:58:04.622Z,1
2022-09-02T15:59:12.951Z,1
2022-09-02T16:00:21.313Z,1
2022-09-02T16:01:29.882Z,3.7
2022-09-02T16:02:38.263Z,3.7
2022-09-02T16:03:46.529Z,3.7
2022-09-02T16:04:55.072Z,0.8
2022-09-02T16:06:03.408Z,0.8
2022-09-02T16:07:12.953Z,0.8
2022-09-02T16:08:20.288Z,1.2
2022-09-02T16:09:28.643Z,1.2
2022-09-02T16:10:36.954Z,1.2
2022-09-02T16:11:45.493Z,0.9
2022-09-02T16:12:53.867Z,0.9
2022-09-02T16:14:02.210Z,0.9
2022-09-02T16:15:10.767Z,1
2022-09-02T16:16:19.133Z,1
2022-09-02T16:17:27.424Z,1
2022-09-02T16:18:35.988Z,1.1
2022-09-02T16:19:44.344Z,1.1
2022-09-02T16:20:52.692Z,1.1
2022-09-02T16:22:01.259Z,1.1
2022-09-02T16:23:09.600Z,1.1
2022-09-02T16:24:17.934Z,1.1
2022-09-02T16:25:26.484Z,0.9
2022-09-02T16:26:34.846Z,0.9
2022-09-02T16:27:43.202Z,0.9
2022-09-02T16:28:51.746Z,0.9
2022-09-02T16:30:00.082Z,0.9